Last 6 Hours

Alpine-Scott Top 8120'

15 Minute Data | America/Los_Angeles
as of 2/18/20 7:22 AM PST
Date & Time Temp (°F) RH (%) Dew Pt (°F) Wet Bulb (°F) Wind Dir (°) Wind Spd (mph) Wind Gust (mph) WindChill (°F) Daily Min Temp (°F) Daily Max Temp (°F)
2/18/20 - 0715 29.6 32 3.2 21.7 S | 189 10.6 16.6 20.5 25.0 33.2
2/18/20 - 0700 29.3 33 3.9 21.7 S | 190 9.8 16.3 21.1 25.0 33.2
2/18/20 - 0645 29.4 32 3.3 21.7 SSW | 192 9.6 15.5 20.9 25.0 33.2
2/18/20 - 0630 29.6 32 3.3 21.8 S | 190 11.3 17.2 20.6 25.0 33.2
2/18/20 - 0615 29.5 33 3.9 21.8 S | 190 11.2 15.8 20.8 25.0 33.2
2/18/20 - 0600 29.8 32 3.4 22.0 SSW | 193 11.8 17.1 20.1 25.0 33.2
2/18/20 - 0545 29.7 33 3.9 21.9 S | 188 10.6 16.7 18.8 25.0 33.2
2/18/20 - 0530 29.8 33 4.3 22.1 S | 188 11.7 17.9 20.9 25.0 33.2
2/18/20 - 0515 29.2 36 5.3 21.9 SSW | 193 10.1 15.4 19.9 25.0 33.2
2/18/20 - 0500 30.2 33 4.4 22.4 SSW | 195 9.2 13.3 20.9 25.0 33.2
2/18/20 - 0445 30.3 35 5.7 22.6 SSW | 193 7.9 10.5 22.6 25.0 33.2
2/18/20 - 0430 30.3 37 7.3 23.0 SSW | 195 8.4 13.0 23.8 25.0 33.2
2/18/20 - 0415 30.3 39 8.4 23.2 SSW | 193 8.5 11.9 21.1 25.0 33.2
2/18/20 - 0400 30.4 39 8.4 23.3 SSW | 193 8.9 12.8 23.5 25.0 33.2
2/18/20 - 0345 30.7 38 7.9 23.3 SSW | 196 9.2 13.1 22.4 25.0 33.2
2/18/20 - 0330 30.9 35 6.8 23.3 SSW | 194 9.9 15.5 21.6 25.0 33.2
2/18/20 - 0315 31.2 33 5.5 23.2 SSW | 194 10.0 13.8 21.8 25.0 33.2
2/18/20 - 0300 31.1 32 4.5 22.9 SSW | 199 11.5 16.3 21.9 25.0 33.2
2/18/20 - 0245 31.2 32 4.8 23.1 SSW | 195 9.6 14.0 22.4 25.0 33.2
2/18/20 - 0230 31.9 31 4.7 23.4 SSW | 199 10.1 14.6 22.6 25.0 33.2
2/18/20 - 0215 32.6 29 3.6 23.7 S | 188 7.7 11.8 24.7 25.0 32.6
2/18/20 - 0200 32.0 31 4.9 23.6 S | 185 7.3 9.6 25.9 25.0 32.5
2/18/20 - 0145 31.8 30 4.0 23.3 S | 190 7.6 10.9 24.0 25.0 32.5
2/18/20 - 0130 28.1 48 11.0 22.5 S | 183 6.1 9.1 21.0 25.0 29.7
Max 32.6 48 11.0 23.7 - 11.8 17.9 25.9 25.0 33.2
Avg 30.4 34 5.3 22.6 - 9.5 14.1 21.8 - -
Min 28.1 29 3.2 21.7 - 6.1 9.1 18.8 25.0 29.7